Time;durP1;ratioP1;P1;durP2;ratioP2;P2;SDS_P1;SDS_P2;PMS_P1;PMS_P2;Temp;Humidity;BMP_temperature;BMP_pressure;BME280_temperature;BME280_humidity;BME280_pressure;Samples;Min_cycle;Max_cycle;Signal;HPM_P1;HPM_P2
2022/07/14 00:01:37;;;;;;;3.05;2.55;;;23.40;1.00;;;;;;5089102;28;20032;-78
2022/07/14 00:04:04;;;;;;;3.20;2.70;;;23.50;1.00;;;;;;5087489;28;20032;-78
2022/07/14 00:06:29;;;;;;;4.50;2.60;;;23.20;1.00;;;;;;5090110;28;20020;-78
2022/07/14 00:08:55;;;;;;;8.32;3.15;;;23.10;1.00;;;;;;5091460;28;20032;-77
2022/07/14 00:11:21;;;;;;;4.30;2.88;;;23.10;1.00;;;;;;5090703;28;20434;-78
2022/07/14 00:13:46;;;;;;;4.03;2.85;;;23.10;1.00;;;;;;5089874;28;20056;-78
2022/07/14 00:16:12;;;;;;;3.10;2.80;;;23.10;1.00;;;;;;5089903;28;20024;-78
2022/07/14 00:18:43;;;;;;;3.22;3.03;;;23.00;1.00;;;;;;5088303;28;20033;-78
2022/07/14 00:21:13;;;;;;;4.65;3.30;;;23.10;1.00;;;;;;5089842;28;20021;-78
2022/07/14 00:23:44;;;;;;;5.85;3.13;;;23.20;1.00;;;;;;5091682;28;20028;-78
2022/07/14 00:26:11;;;;;;;5.22;3.35;;;23.40;1.00;;;;;;5089620;28;20093;-78
2022/07/14 00:28:37;;;;;;;3.80;3.50;;;23.30;1.00;;;;;;5088678;28;20048;-78
2022/07/14 00:31:11;;;;;;;4.45;4.00;;;23.50;1.00;;;;;;5089766;28;20043;-78
2022/07/14 00:33:40;;;;;;;3.80;3.50;;;23.70;1.00;;;;;;5089414;28;20110;-78
2022/07/14 00:36:07;;;;;;;5.50;3.90;;;23.70;1.00;;;;;;5092191;28;20044;-78
2022/07/14 00:38:32;;;;;;;3.90;3.50;;;23.90;1.00;;;;;;5095816;28;20032;-78
2022/07/14 00:40:59;;;;;;;3.85;3.47;;;23.90;1.00;;;;;;5093806;28;20388;-78
2022/07/14 00:43:24;;;;;;;3.85;3.10;;;24.00;1.00;;;;;;5093748;28;20028;-78
2022/07/14 00:45:50;;;;;;;3.88;3.20;;;24.20;1.00;;;;;;5092756;28;20028;-78
2022/07/14 00:48:17;;;;;;;5.88;3.50;;;24.20;1.00;;;;;;5093427;28;20027;-78
2022/07/14 00:50:43;;;;;;;5.13;3.38;;;24.30;1.00;;;;;;5095550;28;20082;-78
2022/07/14 00:53:10;;;;;;;4.82;3.08;;;24.40;1.00;;;;;;5093446;28;20484;-78
2022/07/14 00:55:38;;;;;;;3.42;3.17;;;24.40;1.00;;;;;;5093648;28;20415;-78
2022/07/14 00:58:04;;;;;;;4.53;3.00;;;24.40;1.00;;;;;;5093273;28;20040;-78
2022/07/14 01:00:30;;;;;;;4.10;3.70;;;24.40;1.00;;;;;;5093593;28;20162;-78
2022/07/14 01:02:56;;;;;;;3.75;3.20;;;24.30;1.00;;;;;;5094656;28;20031;-78
2022/07/14 01:05:22;;;;;;;5.20;3.40;;;24.30;1.00;;;;;;5092525;28;20024;-78
2022/07/14 01:07:47;;;;;;;4.60;3.50;;;24.30;1.00;;;;;;5093551;28;20028;-78
2022/07/14 01:10:13;;;;;;;3.60;3.30;;;24.30;1.00;;;;;;5091942;28;20066;-78
2022/07/14 01:12:49;;;;;;;3.67;3.38;;;24.40;1.00;;;;;;5093397;28;20116;-79
2022/07/14 01:15:17;;;;;;;3.75;3.40;;;24.40;1.00;;;;;;5075281;28;20695;-78
2022/07/14 01:17:44;;;;;;;3.85;3.50;;;24.50;1.00;;;;;;5094771;28;20023;-78
2022/07/14 01:20:10;;;;;;;4.82;3.05;;;24.70;1.00;;;;;;5091817;28;20028;-78
2022/07/14 01:22:36;;;;;;;4.53;3.20;;;24.80;1.00;;;;;;5093062;28;20045;-78
2022/07/14 01:25:02;;;;;;;3.45;3.15;;;24.70;1.00;;;;;;5093117;28;20098;-78
2022/07/14 01:27:27;;;;;;;3.53;3.10;;;24.70;1.00;;;;;;5093119;28;20036;-78
2022/07/14 01:29:54;;;;;;;4.70;4.22;;;24.60;1.00;;;;;;5094052;28;20048;-78
2022/07/14 01:32:19;;;;;;;5.88;4.40;;;24.50;1.00;;;;;;5090161;28;20036;-78
2022/07/14 01:34:45;;;;;;;5.40;4.53;;;24.30;1.00;;;;;;5073522;28;20081;-78
2022/07/14 01:37:10;;;;;;;4.97;4.47;;;23.90;1.00;;;;;;5091470;28;20050;-78
2022/07/14 01:39:36;;;;;;;6.68;4.65;;;23.60;1.00;;;;;;5091884;28;20115;-78
2022/07/14 01:42:02;;;;;;;4.32;3.95;;;23.40;1.00;;;;;;5092644;28;20027;-78
2022/07/14 01:44:27;;;;;;;6.25;4.72;;;23.50;1.00;;;;;;5092560;28;20058;-78
2022/07/14 01:46:53;;;;;;;4.80;4.40;;;23.40;1.00;;;;;;5090643;28;20061;-78
2022/07/14 01:49:18;;;;;;;5.18;4.30;;;23.40;1.00;;;;;;5090320;28;20024;-78
2022/07/14 01:51:44;;;;;;;7.25;4.60;;;23.20;1.00;;;;;;5091400;28;20108;-78
2022/07/14 01:54:10;;;;;;;7.07;4.63;;;23.30;1.00;;;;;;5091358;28;20116;-79
2022/07/14 01:56:42;;;;;;;6.50;4.57;;;23.20;1.00;;;;;;5093480;28;20104;-78
2022/07/14 01:59:09;;;;;;;8.85;4.35;;;23.00;1.00;;;;;;5089850;28;20392;-78
2022/07/14 02:01:41;;;;;;;4.55;4.05;;;23.10;1.00;;;;;;5090825;28;20511;-78
2022/07/14 02:04:15;;;;;;;6.57;4.32;;;23.00;1.00;;;;;;5091074;28;20066;-78
2022/07/14 02:06:42;;;;;;;5.75;4.63;;;23.00;1.00;;;;;;5091114;28;20061;-78
2022/07/14 02:09:08;;;;;;;4.38;4.00;;;22.90;1.00;;;;;;5091421;28;20116;-78
2022/07/14 02:14:18;;;;;;;4.68;4.28;;;23.00;1.00;;;;;;5090809;28;20647;-78
2022/07/14 02:16:44;;;;;;;5.50;3.85;;;23.00;1.00;;;;;;5090934;28;20108;-78
2022/07/14 02:19:10;;;;;;;5.03;4.05;;;22.90;1.00;;;;;;5091169;28;20028;-78
2022/07/14 02:21:35;;;;;;;4.68;3.80;;;22.80;1.00;;;;;;5090955;28;20074;-78
2022/07/14 02:24:02;;;;;;;5.60;4.10;;;22.90;1.00;;;;;;5092261;28;20024;-78
2022/07/14 02:26:27;;;;;;;6.25;3.90;;;22.70;1.00;;;;;;5091799;28;20024;-78
2022/07/14 02:28:53;;;;;;;5.97;4.17;;;22.60;1.00;;;;;;5049225;28;1149906;-78
2022/07/14 02:31:19;;;;;;;6.47;3.90;;;22.70;1.00;;;;;;5091559;28;20123;-78
2022/07/14 02:33:45;;;;;;;4.80;4.25;;;22.70;1.00;;;;;;5091883;28;20024;-78
2022/07/14 02:36:11;;;;;;;4.57;4.05;;;22.70;1.00;;;;;;5092374;28;20377;-78
2022/07/14 02:38:37;;;;;;;5.65;4.32;;;22.60;1.00;;;;;;5091952;28;20043;-78
2022/07/14 02:41:04;;;;;;;5.38;4.13;;;22.60;1.00;;;;;;5091901;28;20028;-78
2022/07/14 02:43:31;;;;;;;5.78;4.13;;;22.60;1.00;;;;;;5091102;28;20032;-78
2022/07/14 02:45:58;;;;;;;5.65;3.90;;;22.60;1.00;;;;;;5091266;28;20020;-78
2022/07/14 02:48:23;;;;;;;4.95;4.10;;;22.60;1.00;;;;;;5075709;28;20023;-78
2022/07/14 02:50:49;;;;;;;4.55;3.78;;;22.70;1.00;;;;;;5093851;28;20384;-78
2022/07/14 02:53:15;;;;;;;9.00;4.13;;;22.60;1.00;;;;;;5091249;28;20028;-78
2022/07/14 02:55:40;;;;;;;4.80;4.15;;;22.40;1.00;;;;;;5091206;28;20391;-78
2022/07/14 02:58:06;;;;;;;4.95;4.25;;;22.30;1.00;;;;;;5090215;28;20111;-78
2022/07/14 03:00:32;;;;;;;5.03;4.40;;;22.40;1.00;;;;;;5091362;28;20059;-78
2022/07/14 03:02:58;;;;;;;4.47;4.00;;;22.40;1.00;;;;;;5092651;28;20030;-78
2022/07/14 03:05:24;;;;;;;4.50;4.10;;;22.40;1.00;;;;;;5091651;28;20085;-78
2022/07/14 03:07:50;;;;;;;4.10;3.70;;;22.50;1.00;;;;;;5090081;28;20024;-78
2022/07/14 03:10:15;;;;;;;4.40;4.00;;;22.60;1.00;;;;;;5091057;28;20511;-78
2022/07/14 03:12:41;;;;;;;6.93;3.88;;;22.40;1.00;;;;;;5072359;28;20012;-78
2022/07/14 03:15:10;;;;;;;4.38;3.88;;;22.50;1.00;;;;;;5092172;28;20072;-78
2022/07/14 03:17:38;;;;;;;4.72;4.32;;;22.40;1.00;;;;;;5091229;28;20070;-78
2022/07/14 03:20:06;;;;;;;7.15;4.20;;;22.30;1.00;;;;;;5090630;28;20500;-78
2022/07/14 03:22:32;;;;;;;5.47;4.13;;;22.30;1.00;;;;;;5090737;28;20028;-78
2022/07/14 03:24:58;;;;;;;4.28;3.70;;;22.30;1.00;;;;;;5090459;28;20059;-78
2022/07/14 03:27:24;;;;;;;4.88;4.47;;;22.20;1.00;;;;;;5090097;28;20535;-78
2022/07/14 03:29:50;;;;;;;8.55;4.28;;;22.20;1.00;;;;;;5092611;28;20056;-78
2022/07/14 03:32:15;;;;;;;4.57;4.15;;;22.20;1.00;;;;;;5090549;28;20032;-78
2022/07/14 03:34:41;;;;;;;5.13;4.07;;;22.20;1.00;;;;;;5090800;28;20028;-78
2022/07/14 03:37:07;;;;;;;5.25;4.03;;;22.20;1.00;;;;;;5090133;28;20408;-78
2022/07/14 03:39:32;;;;;;;4.55;3.90;;;22.10;1.00;;;;;;5090752;28;20036;-78
2022/07/14 03:41:58;;;;;;;5.43;4.15;;;21.90;1.00;;;;;;5073290;28;20496;-78
2022/07/14 03:44:24;;;;;;;5.53;4.32;;;21.90;1.00;;;;;;5091298;28;20042;-78
2022/07/14 03:46:50;;;;;;;8.98;4.70;;;21.70;1.00;;;;;;5089161;28;20495;-78
2022/07/14 03:49:16;;;;;;;4.93;4.47;;;21.60;1.00;;;;;;5090151;28;20043;-78
2022/07/14 03:51:42;;;;;;;5.35;4.20;;;21.60;1.00;;;;;;5090352;28;20069;-78
2022/07/14 03:54:08;;;;;;;4.20;3.80;;;21.70;1.00;;;;;;5091134;28;20030;-78
2022/07/14 03:56:33;;;;;;;6.28;4.50;;;21.80;1.00;;;;;;5090051;28;20458;-78
2022/07/14 03:58:59;;;;;;;4.47;4.07;;;21.70;1.00;;;;;;5090107;28;20047;-78
2022/07/14 04:01:25;;;;;;;4.35;3.95;;;21.80;1.00;;;;;;5089917;28;20020;-78
2022/07/14 04:03:51;;;;;;;4.57;3.85;;;21.90;1.00;;;;;;5090168;28;20028;-78
2022/07/14 04:06:16;;;;;;;6.10;3.88;;;21.80;1.00;;;;;;5090170;28;20075;-78
2022/07/14 04:08:44;;;;;;;5.07;3.75;;;21.70;1.00;;;;;;5092098;28;20429;-78
2022/07/14 04:11:10;;;;;;;4.22;3.90;;;21.60;1.00;;;;;;5087773;28;20032;-78
2022/07/14 04:13:36;;;;;;;4.72;4.28;;;21.80;1.00;;;;;;5089784;28;20028;-78
2022/07/14 04:16:02;;;;;;;5.13;4.28;;;21.90;1.00;;;;;;5089899;28;20031;-77
2022/07/14 04:18:28;;;;;;;5.55;4.70;;;21.70;1.00;;;;;;5090156;28;20082;-78
2022/07/14 04:20:54;;;;;;;5.20;4.70;;;21.50;1.00;;;;;;5091763;28;20043;-78
2022/07/14 04:23:20;;;;;;;4.82;4.40;;;21.40;1.00;;;;;;5090323;28;20020;-78
2022/07/14 04:25:47;;;;;;;5.32;4.82;;;21.30;1.00;;;;;;5088471;28;20027;-78
2022/07/14 04:28:14;;;;;;;4.97;4.57;;;21.30;1.00;;;;;;5089503;28;20048;-78
2022/07/14 04:30:39;;;;;;;5.55;4.85;;;21.30;1.00;;;;;;5089701;28;20020;-78
2022/07/14 04:33:05;;;;;;;5.40;4.57;;;21.40;1.00;;;;;;5091022;28;20549;-78
2022/07/14 04:35:30;;;;;;;4.95;4.55;;;21.30;1.00;;;;;;5089409;28;20132;-78
2022/07/14 04:37:56;;;;;;;7.20;4.88;;;21.20;1.00;;;;;;5089523;28;20031;-78
2022/07/14 04:40:22;;;;;;;5.07;4.68;;;21.30;1.00;;;;;;5089698;28;20032;-78
2022/07/14 04:42:48;;;;;;;6.38;4.80;;;21.30;1.00;;;;;;5089621;28;20396;-78
2022/07/14 04:45:13;;;;;;;6.43;4.80;;;21.50;1.00;;;;;;5089785;28;20082;-78
2022/07/14 04:47:39;;;;;;;5.13;4.63;;;21.40;1.00;;;;;;5091809;28;20024;-78
2022/07/14 04:52:49;;;;;;;5.20;4.72;;;21.40;1.00;;;;;;5090096;28;20058;-77
2022/07/14 04:55:16;;;;;;;4.82;4.43;;;21.40;1.00;;;;;;5089269;28;20373;-78
2022/07/14 04:57:42;;;;;;;5.20;4.72;;;21.50;1.00;;;;;;5089471;28;20031;-78
2022/07/14 05:00:09;;;;;;;4.97;4.47;;;21.50;1.00;;;;;;5090057;28;20054;-78
2022/07/14 05:02:36;;;;;;;4.88;4.43;;;21.50;1.00;;;;;;5091532;28;20013;-78
2022/07/14 05:05:02;;;;;;;8.13;4.63;;;21.60;1.00;;;;;;5087394;28;20361;-78
2022/07/14 05:07:28;;;;;;;6.00;4.35;;;21.50;1.00;;;;;;5089271;28;20043;-78
2022/07/14 05:09:53;;;;;;;5.40;5.00;;;21.60;1.00;;;;;;5089564;28;20021;-78
2022/07/14 05:12:19;;;;;;;5.03;4.53;;;21.70;1.00;;;;;;5088973;28;20029;-78
2022/07/14 05:14:45;;;;;;;5.15;4.75;;;21.60;1.00;;;;;;5090845;28;20032;-78
2022/07/14 05:17:11;;;;;;;5.50;4.65;;;21.60;1.00;;;;;;5089680;28;20396;-78
2022/07/14 05:19:37;;;;;;;5.43;4.93;;;21.70;1.00;;;;;;5071159;28;20036;-78
2022/07/14 05:22:03;;;;;;;7.65;4.78;;;21.60;1.00;;;;;;5072801;28;20086;-77
2022/07/14 05:24:29;;;;;;;6.60;4.97;;;21.60;1.00;;;;;;5092918;28;20028;-78
2022/07/14 05:26:58;;;;;;;6.05;5.53;;;21.50;1.00;;;;;;5094612;28;20077;-78
2022/07/14 05:29:23;;;;;;;8.07;5.85;;;21.50;1.00;;;;;;5092319;28;20052;-77
2022/07/14 05:31:49;;;;;;;5.85;5.35;;;21.50;1.00;;;;;;5092992;28;20103;-78
2022/07/14 05:34:14;;;;;;;6.15;5.57;;;21.60;1.00;;;;;;5092776;28;20465;-77
2022/07/14 05:36:40;;;;;;;6.10;5.25;;;21.70;1.00;;;;;;5092844;28;20028;-78
2022/07/14 05:39:06;;;;;;;6.00;5.50;;;21.90;1.00;;;;;;5093045;28;20099;-78
2022/07/14 05:41:31;;;;;;;5.75;5.18;;;22.00;1.00;;;;;;5094423;28;20024;-78
2022/07/14 05:43:57;;;;;;;5.75;5.25;;;22.10;1.00;;;;;;5091557;28;20032;-78
2022/07/14 05:46:22;;;;;;;6.53;5.78;;;22.00;1.00;;;;;;5092624;28;20035;-78
2022/07/14 05:48:48;;;;;;;7.53;5.32;;;22.20;1.00;;;;;;5092712;28;20025;-78
2022/07/14 05:51:16;;;;;;;5.50;5.03;;;22.30;1.00;;;;;;5093518;28;20028;-78
2022/07/14 05:53:43;;;;;;;6.65;4.97;;;22.20;1.00;;;;;;5093302;28;20499;-78
2022/07/14 05:56:12;;;;;;;5.35;4.85;;;22.40;1.00;;;;;;5092501;28;20111;-78
2022/07/14 05:58:39;;;;;;;7.82;5.00;;;22.60;1.00;;;;;;5092680;28;20036;-78
2022/07/14 06:01:07;;;;;;;6.28;4.90;;;22.70;1.00;;;;;;5092510;28;20039;-78
2022/07/14 06:03:32;;;;;;;6.10;4.70;;;22.80;1.00;;;;;;5091962;28;20111;-78
2022/07/14 06:06:00;;;;;;;6.10;4.60;;;22.90;1.00;;;;;;5093518;28;20131;-78
2022/07/14 06:08:25;;;;;;;5.93;4.57;;;23.00;1.00;;;;;;5093229;28;20032;-78
2022/07/14 06:10:51;;;;;;;5.72;4.65;;;23.00;1.00;;;;;;5092056;28;20024;-77
2022/07/14 06:13:17;;;;;;;5.72;4.55;;;23.20;1.00;;;;;;5092082;28;20517;-77
2022/07/14 06:15:45;;;;;;;8.80;4.55;;;23.30;1.00;;;;;;5091872;28;20017;-78
2022/07/14 06:18:11;;;;;;;5.28;4.78;;;23.40;1.00;;;;;;5091707;28;20032;-77
2022/07/14 06:20:39;;;;;;;5.13;4.72;;;23.40;1.00;;;;;;5093343;28;20563;-77
2022/07/14 06:23:05;;;;;;;6.70;4.72;;;23.40;1.00;;;;;;5092880;28;20035;-75
2022/07/14 06:25:30;;;;;;;5.80;4.97;;;23.40;1.00;;;;;;5092825;28;20032;-75
2022/07/14 06:27:56;;;;;;;5.38;4.88;;;23.50;1.00;;;;;;5091234;28;20043;-77
2022/07/14 06:30:22;;;;;;;6.53;4.90;;;23.50;1.00;;;;;;5075657;28;20063;-78
2022/07/14 06:32:47;;;;;;;6.05;4.85;;;23.60;1.00;;;;;;5092367;28;20043;-78
2022/07/14 06:35:13;;;;;;;8.18;5.10;;;23.60;1.00;;;;;;5101935;28;20028;-80
2022/07/14 06:37:38;;;;;;;6.93;4.63;;;23.70;1.00;;;;;;5097546;28;20032;-79
2022/07/14 06:40:06;;;;;;;9.88;5.00;;;23.80;1.00;;;;;;5090938;28;20449;-79
2022/07/14 06:42:33;;;;;;;4.60;4.05;;;23.90;1.00;;;;;;5091988;28;20107;-79
2022/07/14 06:44:58;;;;;;;6.47;5.13;;;24.10;1.00;;;;;;5092672;28;20030;-80
2022/07/14 06:47:24;;;;;;;8.00;5.07;;;24.10;1.00;;;;;;5092103;28;20036;-79
2022/07/14 06:49:49;;;;;;;4.78;4.38;;;24.20;1.00;;;;;;5089868;28;20110;-79
2022/07/14 06:52:15;;;;;;;6.50;4.40;;;24.30;1.00;;;;;;5090618;28;20508;-80
2022/07/14 06:54:43;;;;;;;4.88;4.38;;;24.30;1.00;;;;;;5090382;28;20020;-78
2022/07/14 06:57:13;;;;;;;4.88;4.22;;;24.40;1.00;;;;;;5090611;28;20036;-80
2022/07/14 06:59:39;;;;;;;5.85;4.40;;;24.50;1.00;;;;;;5092855;28;20046;-79
2022/07/14 07:02:04;;;;;;;6.35;3.80;;;24.60;1.00;;;;;;5089177;28;20551;-79
2022/07/14 07:04:30;;;;;;;6.38;4.10;;;24.70;1.00;;;;;;5090494;28;20074;-80
2022/07/14 07:06:55;;;;;;;7.15;4.47;;;24.70;1.00;;;;;;5091013;28;20028;-80
2022/07/14 07:09:21;;;;;;;4.70;3.97;;;24.80;1.00;;;;;;5090942;28;20032;-80
2022/07/14 07:11:49;;;;;;;5.60;4.25;;;24.80;1.00;;;;;;5093090;28;20038;-79
2022/07/14 07:14:16;;;;;;;4.60;4.15;;;24.90;1.00;;;;;;5091032;28;20434;-80
2022/07/14 07:16:44;;;;;;;4.45;4.05;;;25.10;1.00;;;;;;5090918;28;20027;-79
2022/07/14 07:19:10;;;;;;;5.95;4.03;;;25.10;1.00;;;;;;5071784;28;20463;-80
2022/07/14 07:21:36;;;;;;;5.22;4.20;;;25.20;1.00;;;;;;5090703;28;20020;-79
2022/07/14 07:24:02;;;;;;;4.65;3.95;;;25.30;1.00;;;;;;5091883;28;20028;-79
2022/07/14 07:26:32;;;;;;;4.85;3.88;;;25.40;1.00;;;;;;5092453;28;20097;-80
2022/07/14 07:28:58;;;;;;;5.07;3.92;;;25.50;1.00;;;;;;5090526;28;20055;-79
2022/07/14 07:31:25;;;;;;;4.63;3.90;;;25.60;1.00;;;;;;5090408;28;20123;-79
2022/07/14 07:33:51;;;;;;;4.20;3.78;;;25.70;1.00;;;;;;5090045;28;20514;-80
2022/07/14 07:36:17;;;;;;;5.43;3.72;;;25.80;1.00;;;;;;5090554;28;20040;-79
2022/07/14 07:38:44;;;;;;;3.97;3.65;;;25.90;1.00;;;;;;5092491;28;20043;-79
2022/07/14 07:41:10;;;;;;;4.60;3.70;;;26.00;1.00;;;;;;5088794;28;20097;-80
2022/07/14 07:43:36;;;;;;;4.25;3.58;;;26.00;1.00;;;;;;5090076;28;20523;-79
2022/07/14 07:46:05;;;;;;;5.38;3.95;;;26.20;1.00;;;;;;5089704;28;20087;-79
2022/07/14 07:48:32;;;;;;;7.07;4.45;;;26.30;1.00;;;;;;5089429;28;20032;-80
2022/07/14 07:50:58;;;;;;;4.18;3.88;;;26.40;1.00;;;;;;5091119;28;20507;-80
2022/07/14 07:53:24;;;;;;;3.88;3.58;;;26.40;1.00;;;;;;5090821;28;20036;-79
2022/07/14 07:55:50;;;;;;;6.57;3.50;;;26.50;1.00;;;;;;5090133;28;20073;-80
2022/07/14 07:58:15;;;;;;;4.18;3.78;;;26.60;1.00;;;;;;5090177;28;20488;-79
2022/07/14 08:00:41;;;;;;;5.85;3.85;;;26.70;1.00;;;;;;5089981;28;20027;-80
2022/07/14 08:03:07;;;;;;;5.68;3.90;;;26.90;1.00;;;;;;5090407;28;20099;-80
2022/07/14 08:05:33;;;;;;;7.45;3.90;;;26.90;1.00;;;;;;5102961;28;20069;-79
2022/07/14 08:07:59;;;;;;;6.43;3.42;;;27.10;1.00;;;;;;5089875;28;20032;-79
2022/07/14 08:10:25;;;;;;;4.55;3.40;;;27.10;1.00;;;;;;5090032;28;20101;-80
2022/07/14 08:12:51;;;;;;;4.25;3.53;;;27.10;1.00;;;;;;5089914;28;20028;-80
2022/07/14 08:15:17;;;;;;;6.10;3.75;;;27.10;1.00;;;;;;5089391;28;20025;-79
2022/07/14 08:17:44;;;;;;;6.55;3.58;;;27.20;1.00;;;;;;5091657;28;20097;-80
2022/07/14 08:20:10;;;;;;;5.95;4.28;;;27.30;1.00;;;;;;5087642;28;20024;-79
2022/07/14 08:22:36;;;;;;;4.53;3.47;;;27.30;1.00;;;;;;5089652;28;20051;-79
2022/07/14 08:25:04;;;;;;;7.88;3.60;;;27.40;1.00;;;;;;5089625;28;20492;-79
2022/07/14 08:27:31;;;;;;;4.03;3.58;;;27.40;1.00;;;;;;5089623;28;20079;-79
2022/07/14 08:29:56;;;;;;;8.02;3.97;;;27.50;1.00;;;;;;5073224;28;20075;-79
2022/07/14 08:32:39;;;;;;;4.22;3.72;;;27.70;1.00;;;;;;5088242;28;20055;-80
2022/07/14 08:35:07;;;;;;;4.70;3.65;;;27.70;1.00;;;;;;5089520;28;20369;-80
2022/07/14 08:37:34;;;;;;;3.90;3.60;;;27.80;1.00;;;;;;5088915;28;20484;-80
2022/07/14 08:40:00;;;;;;;3.75;3.30;;;27.80;1.00;;;;;;5089604;28;20445;-80
2022/07/14 08:42:31;;;;;;;4.38;4.05;;;27.70;1.00;;;;;;5089425;28;20055;-80
2022/07/14 08:44:57;;;;;;;5.57;3.75;;;27.70;1.00;;;;;;5090799;28;20020;-80
2022/07/14 08:47:22;;;;;;;6.68;4.00;;;27.80;1.00;;;;;;5088301;28;20059;-80
2022/07/14 08:49:48;;;;;;;4.55;4.15;;;27.80;1.00;;;;;;5089538;28;20447;-80
2022/07/14 08:52:19;;;;;;;7.68;3.65;;;28.10;1.00;;;;;;5089536;28;20040;-79
2022/07/14 08:54:46;;;;;;;3.95;3.65;;;28.20;1.00;;;;;;5089454;28;20079;-79
2022/07/14 08:57:13;;;;;;;4.35;3.92;;;28.30;1.00;;;;;;5091734;28;20028;-80
2022/07/14 08:59:38;;;;;;;5.72;4.20;;;28.40;1.00;;;;;;5093681;28;20121;-80
2022/07/14 09:02:04;;;;;;;5.13;3.90;;;28.50;1.00;;;;;;5093034;28;20070;-80
2022/07/14 09:04:30;;;;;;;4.43;3.80;;;28.60;1.00;;;;;;5093290;28;20102;-80
2022/07/14 09:06:57;;;;;;;4.97;3.53;;;28.40;1.00;;;;;;5093613;28;20032;-80
2022/07/14 09:09:26;;;;;;;4.03;3.65;;;28.40;1.00;;;;;;5077233;28;20393;-80
2022/07/14 09:12:07;;;;;;;3.95;3.65;;;28.40;1.00;;;;;;5091307;28;20050;-80
2022/07/14 09:17:29;;;;;;;7.05;3.92;;;28.80;1.00;;;;;;5092056;28;20058;-80
2022/07/14 09:20:10;;;;;;;4.10;3.72;;;28.80;1.00;;;;;;5092886;28;20515;-79
2022/07/14 09:22:38;;;;;;;3.97;3.58;;;28.90;1.00;;;;;;5092662;28;20024;-80
2022/07/14 09:25:08;;;;;;;5.28;3.47;;;29.00;1.00;;;;;;5092650;28;20024;-80
2022/07/14 09:27:34;;;;;;;3.55;3.25;;;29.00;1.00;;;;;;5092985;28;20119;-80
2022/07/14 09:30:00;;;;;;;3.58;3.28;;;29.30;1.00;;;;;;5093941;28;20118;-79
2022/07/14 09:32:56;;;;;;;3.50;3.20;;;29.50;1.00;;;;;;5093553;28;20158;-79
2022/07/14 09:35:41;;;;;;;6.00;3.17;;;29.60;1.00;;;;;;5093463;28;20028;-80
2022/07/14 09:38:33;;;;;;;3.85;2.78;;;29.70;1.00;;;;;;5090822;28;20077;-80
2022/07/14 09:41:08;;;;;;;3.85;3.22;;;29.70;1.00;;;;;;5089487;28;20071;-80
2022/07/14 09:43:34;;;;;;;3.78;3.25;;;29.70;1.00;;;;;;5092004;28;20031;-79
2022/07/14 09:45:59;;;;;;;5.00;3.25;;;30.00;1.00;;;;;;5092515;28;20036;-79
2022/07/14 09:48:25;;;;;;;3.33;2.72;;;30.10;1.00;;;;;;5092845;28;20024;-80
2022/07/14 09:50:57;;;;;;;3.17;2.90;;;30.10;1.00;;;;;;5090500;28;20032;-80
2022/07/14 09:53:24;;;;;;;3.00;2.75;;;30.10;1.00;;;;;;5091509;28;20027;-80
2022/07/14 09:55:55;;;;;;;3.08;2.88;;;30.10;1.00;;;;;;5092196;28;20480;-81
2022/07/14 09:58:21;;;;;;;4.03;3.00;;;30.30;1.00;;;;;;5091847;28;20039;-79
2022/07/14 10:01:03;;;;;;;3.50;3.20;;;30.20;1.00;;;;;;5092149;28;20066;-79
2022/07/14 10:03:30;;;;;;;4.72;3.17;;;30.40;1.00;;;;;;5092632;28;20028;-79
2022/07/14 10:05:59;;;;;;;4.10;3.45;;;30.40;1.00;;;;;;5093754;28;20400;-77
2022/07/14 10:08:27;;;;;;;3.63;2.90;;;30.50;1.00;;;;;;5090960;28;20036;-79
2022/07/14 10:10:54;;;;;;;5.00;3.13;;;30.60;1.00;;;;;;5092114;28;20020;-79
2022/07/14 10:13:22;;;;;;;5.13;3.10;;;30.70;1.00;;;;;;5090962;28;20036;-78
2022/07/14 10:15:49;;;;;;;3.20;2.90;;;30.70;1.00;;;;;;5091757;28;20027;-77
2022/07/14 10:18:15;;;;;;;3.85;3.22;;;30.70;1.00;;;;;;5091803;28;20036;-79
2022/07/14 10:20:45;;;;;;;3.50;3.20;;;30.60;1.00;;;;;;5094042;28;20031;-80
2022/07/14 10:23:12;;;;;;;4.32;3.10;;;30.60;1.00;;;;;;5090241;28;20028;-80
2022/07/14 10:25:39;;;;;;;3.55;3.25;;;30.70;1.00;;;;;;5091341;28;20036;-80
2022/07/14 10:28:05;;;;;;;4.60;3.38;;;30.70;1.00;;;;;;5090901;28;20040;-80
2022/07/14 10:30:53;;;;;;;4.60;3.63;;;31.00;1.00;;;;;;5091737;28;20059;-80
2022/07/14 10:33:45;;;;;;;3.17;2.97;;;31.10;1.00;;;;;;5091752;28;20050;-80
2022/07/14 10:36:19;;;;;;;3.10;2.90;;;31.10;1.00;;;;;;5089611;28;20024;-80
2022/07/14 10:39:13;;;;;;;3.47;3.17;;;31.20;1.00;;;;;;5093612;28;20467;-80
2022/07/14 10:42:14;;;;;;;3.83;3.08;;;31.30;1.00;;;;;;5091128;28;20036;-80
2022/07/14 10:44:45;;;;;;;4.15;3.75;;;31.40;1.00;;;;;;5091863;28;20062;-80
2022/07/14 10:47:10;;;;;;;3.85;3.55;;;31.40;1.00;;;;;;5090893;28;20044;-80
2022/07/14 10:50:04;;;;;;;5.43;3.50;;;31.50;1.00;;;;;;5091646;28;20109;-81
2022/07/14 10:52:31;;;;;;;3.38;3.13;;;31.30;1.00;;;;;;5090991;28;20039;-80
2022/07/14 10:55:29;;;;;;;3.58;3.15;;;31.50;1.00;;;;;;5090082;28;20024;-80
2022/07/14 10:58:01;;;;;;;3.53;3.25;;;31.30;1.00;;;;;;4976560;28;20141;-80
2022/07/14 11:00:46;;;;;;;5.18;3.28;;;31.30;1.00;;;;;;4989357;28;20392;-80
2022/07/14 11:03:39;;;;;;;3.45;3.15;;;31.10;1.00;;;;;;4992418;28;20053;-80
2022/07/14 11:06:08;;;;;;;4.65;2.90;;;31.60;1.00;;;;;;4993678;28;20433;-80
2022/07/14 11:08:38;;;;;;;2.75;2.55;;;31.80;1.00;;;;;;4986863;28;20042;-80
2022/07/14 11:11:08;;;;;;;3.20;2.83;;;32.00;1.00;;;;;;4986678;28;20030;-81
2022/07/14 11:14:00;;;;;;;4.43;2.95;;;32.30;1.00;;;;;;4985956;28;20046;-85
2022/07/14 11:16:47;;;;;;;6.40;2.97;;;32.30;1.00;;;;;;4987658;28;20035;-80
2022/07/14 11:19:35;;;;;;;3.40;3.10;;;32.30;1.00;;;;;;4988290;28;20417;-80
2022/07/14 11:22:19;;;;;;;2.95;2.70;;;32.20;1.00;;;;;;4985261;28;20427;-78
2022/07/14 11:24:57;;;;;;;3.38;2.95;;;32.30;1.00;;;;;;4986677;28;20038;-78
2022/07/14 11:27:31;;;;;;;3.60;3.10;;;32.10;1.00;;;;;;4988965;28;20046;-78
2022/07/14 11:29:58;;;;;;;2.90;2.70;;;32.30;1.00;;;;;;4987020;28;20174;-78
2022/07/14 11:32:32;;;;;;;3.65;2.90;;;32.20;1.00;;;;;;4979786;28;20150;-78
2022/07/14 11:38:22;;;;;;;3.67;3.08;;;32.50;1.00;;;;;;5065904;28;20120;-75
2022/07/14 11:40:51;;;;;;;4.03;2.90;;;32.30;1.00;;;;;;5065441;28;20443;-78
2022/07/14 11:43:28;;;;;;;3.22;2.92;;;32.00;1.00;;;;;;5066366;28;20024;-78
2022/07/14 11:45:59;;;;;;;3.22;2.92;;;32.50;1.00;;;;;;5057232;28;20021;-78
2022/07/14 11:48:28;;;;;;;3.20;2.95;;;33.00;1.00;;;;;;5053909;28;20025;-77
2022/07/14 11:51:06;;;;;;;3.22;2.90;;;33.20;1.00;;;;;;5068300;28;20037;-77
2022/07/14 11:53:33;;;;;;;2.92;2.70;;;33.30;1.00;;;;;;5066544;28;20123;-76
2022/07/14 11:56:00;;;;;;;5.78;3.03;;;33.60;1.00;;;;;;5064839;28;20032;-78
2022/07/14 11:58:28;;;;;;;4.35;3.20;;;34.10;1.00;;;;;;5065751;28;20017;-78
2022/07/14 12:00:56;;;;;;;4.05;2.80;;;35.60;1.00;;;;;;5066255;28;20035;-77
2022/07/14 12:03:23;;;;;;;3.38;3.00;;;37.90;1.00;;;;;;5069714;28;20029;-78
2022/07/14 12:05:57;;;;;;;3.20;2.80;;;39.10;1.00;;;;;;5067684;28;20025;-77
2022/07/14 12:08:30;;;;;;;3.00;2.80;;;40.70;1.00;;;;;;5065603;28;20044;-78
2022/07/14 12:11:05;;;;;;;4.90;2.83;;;41.60;1.00;;;;;;5065402;28;20021;-78
2022/07/14 12:13:31;;;;;;;3.25;2.95;;;42.80;1.00;;;;;;5063691;28;20435;-79
2022/07/14 12:16:03;;;;;;;3.38;3.08;;;43.30;1.00;;;;;;5054088;28;20113;-79
2022/07/14 12:18:34;;;;;;;3.40;2.80;;;43.30;1.00;;;;;;5054303;28;20028;-78
2022/07/14 12:21:00;;;;;;;3.08;2.70;;;42.30;1.00;;;;;;5068413;28;20059;-79
2022/07/14 12:23:27;;;;;;;4.13;2.70;;;42.60;1.00;;;;;;5056561;28;20064;-78
2022/07/14 12:25:58;;;;;;;2.90;2.70;;;43.70;1.00;;;;;;5056812;28;20498;-79
2022/07/14 12:28:25;;;;;;;3.88;2.40;;;43.50;1.00;;;;;;5067276;28;20040;-79
2022/07/14 12:30:54;;;;;;;3.05;2.80;;;44.10;1.00;;;;;;5091649;28;20035;-80
2022/07/14 12:33:26;;;;;;;3.30;3.00;;;45.10;1.00;;;;;;5094000;28;20024;-79
2022/07/14 12:35:55;;;;;;;3.40;3.00;;;45.30;1.00;;;;;;5092093;28;20028;-79
2022/07/14 12:38:21;;;;;;;2.70;2.50;;;45.70;1.00;;;;;;5092519;28;20127;-79
2022/07/14 12:40:54;;;;;;;3.35;2.88;;;45.30;1.00;;;;;;5093438;28;20451;-79
2022/07/14 12:43:20;;;;;;;2.67;2.53;;;44.10;1.00;;;;;;5093276;28;20039;-79
2022/07/14 12:46:05;;;;;;;2.92;2.53;;;43.90;1.00;;;;;;5093658;28;20477;-80
2022/07/14 12:48:48;;;;;;;3.67;2.60;;;44.60;1.00;;;;;;5078835;28;20423;-79
2022/07/14 12:51:33;;;;;;;2.78;2.40;;;44.00;1.00;;;;;;5095250;28;20023;-79
2022/07/14 12:54:11;;;;;;;2.80;2.60;;;44.20;1.00;;;;;;5091495;28;20024;-78
2022/07/14 12:56:53;;;;;;;2.92;2.72;;;44.40;1.00;;;;;;5093280;28;20392;-79
2022/07/14 12:59:21;;;;;;;3.72;2.72;;;43.80;1.00;;;;;;5093360;28;20119;-78
2022/07/14 13:02:06;;;;;;;3.63;2.65;;;43.90;1.00;;;;;;5075012;28;20048;-79
2022/07/14 13:04:43;;;;;;;2.97;2.72;;;43.90;1.00;;;;;;5093569;28;20071;-79
2022/07/14 13:07:18;;;;;;;2.95;2.67;;;43.80;1.00;;;;;;5092955;28;20024;-79
2022/07/14 13:10:10;;;;;;;3.40;2.70;;;43.70;1.00;;;;;;5093440;28;20507;-79
2022/07/14 13:12:38;;;;;;;3.58;2.60;;;43.50;1.00;;;;;;5077798;28;20032;-78
2022/07/14 13:15:09;;;;;;;2.60;2.40;;;43.10;1.00;;;;;;5094335;28;20026;-79
2022/07/14 13:17:54;;;;;;;3.38;2.25;;;42.50;1.00;;;;;;5094498;28;20020;-79